createdAt,value
2022-08-11T00:04:13.913Z,100794.09
2022-08-11T00:09:18.372Z,100796.59
2022-08-11T00:14:24.908Z,100784.75
2022-08-11T00:20:13.748Z,100797.00
2022-08-11T00:25:13.394Z,100804.69
2022-08-11T00:30:15.599Z,100812.72
2022-08-11T00:35:51.455Z,100810.28
2022-08-11T00:40:55.434Z,100806.72
2022-08-11T00:46:22.977Z,100817.38
2022-08-11T00:52:04.993Z,100813.28
2022-08-11T00:57:36.770Z,100819.03
2022-08-11T01:02:48.243Z,100809.31
2022-08-11T01:08:25.733Z,100809.31
2022-08-11T01:14:05.886Z,100811.88
2022-08-11T01:20:39.673Z,100808.97
2022-08-11T01:25:28.924Z,100817.81
2022-08-11T01:31:04.486Z,100820.25
2022-08-11T01:36:20.698Z,100815.56
2022-08-11T01:41:59.428Z,100814.75
2022-08-11T01:47:34.436Z,100813.84
2022-08-11T01:52:40.310Z,100809.66
2022-08-11T01:57:50.777Z,100805.81
2022-08-11T02:03:10.285Z,100806.06
2022-08-11T02:08:32.906Z,100805.56
2022-08-11T02:13:40.697Z,100798.56
2022-08-11T02:19:06.170Z,100793.66
2022-08-11T02:24:14.265Z,100798.16
2022-08-11T02:29:55.387Z,100792.31
2022-08-11T02:35:06.011Z,100801.66
2022-08-11T02:40:20.826Z,100797.75
2022-08-11T02:45:41.042Z,100803.16
2022-08-11T02:51:02.484Z,100806.31
2022-08-11T02:56:13.886Z,100813.44
2022-08-11T03:01:20.064Z,100817.75
2022-08-11T03:06:41.713Z,100816.59
2022-08-11T03:12:16.973Z,100822.09
2022-08-11T03:17:30.462Z,100824.75
2022-08-11T03:22:59.604Z,100823.41
2022-08-11T03:28:14.701Z,100825.34
2022-08-11T03:33:45.921Z,100817.00
2022-08-11T03:39:03.977Z,100819.25
2022-08-11T03:44:23.992Z,100819.00
2022-08-11T03:49:31.075Z,100823.81
2022-08-11T03:54:50.172Z,100818.31
2022-08-11T04:00:11.121Z,100811.66
2022-08-11T04:05:39.714Z,100812.59
2022-08-11T04:10:53.121Z,100800.16
2022-08-11T04:16:00.680Z,100810.06
2022-08-11T04:21:26.850Z,100805.25
2022-08-11T04:26:49.661Z,100804.81
2022-08-11T04:32:20.416Z,100806.47
2022-08-11T04:37:34.268Z,100808.91
2022-08-11T04:43:22.379Z,100813.56
2022-08-11T04:49:06.542Z,100812.47
2022-08-11T04:54:48.046Z,100813.22
2022-08-11T05:00:24.347Z,100810.97
2022-08-11T05:06:13.893Z,100809.06
2022-08-11T05:11:52.376Z,100809.13
2022-08-11T05:17:24.731Z,100810.97
2022-08-11T05:22:47.168Z,100817.16
2022-08-11T05:28:25.272Z,100828.53
2022-08-11T05:34:11.752Z,100830.06
2022-08-11T05:39:36.770Z,100834.72
2022-08-11T05:44:56.931Z,100832.31
2022-08-11T05:50:16.778Z,100820.63
2022-08-11T05:56:02.130Z,100834.47
2022-08-11T06:01:04.856Z,100832.66
2022-08-11T06:06:08.389Z,100837.56
2022-08-11T06:11:09.800Z,100841.97
2022-08-11T06:16:12.048Z,100841.78
2022-08-11T06:21:13.462Z,100844.53
2022-08-11T06:26:14.888Z,100845.88
2022-08-11T06:31:24.121Z,100853.13
2022-08-11T06:36:35.648Z,100854.78
2022-08-11T06:41:46.780Z,100855.19
2022-08-11T06:46:50.850Z,100854.44
2022-08-11T06:51:52.277Z,100851.59
2022-08-11T06:57:29.388Z,100853.09
2022-08-11T07:02:33.757Z,100853.66
2022-08-11T07:08:35.144Z,100839.13
2022-08-11T07:13:54.535Z,100840.66
2022-08-11T07:19:18.124Z,100843.78
2022-08-11T07:25:01.317Z,100841.53
2022-08-11T07:30:08.773Z,100844.53
2022-08-11T07:35:15.194Z,100835.97
2022-08-11T07:40:23.245Z,100837.09
2022-08-11T07:45:43.388Z,100833.00
2022-08-11T07:51:03.610Z,100825.00
2022-08-11T07:56:06.179Z,100829.75
2022-08-11T08:01:25.871Z,100831.19
2022-08-11T08:06:46.022Z,100823.66
2022-08-11T08:12:06.041Z,100827.00
2022-08-11T08:17:25.701Z,100824.44
2022-08-11T08:22:37.514Z,100810.06
2022-08-11T08:27:43.424Z,100803.75
2022-08-11T08:32:44.914Z,100803.22
2022-08-11T08:37:51.135Z,100794.72
2022-08-11T08:42:57.176Z,100789.22
2022-08-11T08:48:16.077Z,100786.69
2022-08-11T08:53:29.412Z,100775.50
2022-08-11T08:58:30.852Z,100765.84
2022-08-11T09:04:02.944Z,100776.28
2022-08-11T09:08:58.132Z,100767.25
2022-08-11T09:14:04.740Z,100763.47
2022-08-11T09:19:08.264Z,100755.38
2022-08-11T09:24:28.263Z,100756.00
2022-08-11T09:29:30.990Z,100754.63
2022-08-11T09:34:36.483Z,100757.34
2022-08-11T09:39:56.474Z,100756.22
2022-08-11T09:44:57.897Z,100749.66
2022-08-11T09:50:01.189Z,100744.38
2022-08-11T09:55:03.129Z,100744.47
2022-08-11T10:00:12.860Z,100743.94
2022-08-11T10:05:36.230Z,100735.94
2022-08-11T10:10:38.294Z,100740.09
2022-08-11T10:15:39.757Z,100735.59
2022-08-11T10:21:09.640Z,100732.34
2022-08-11T10:26:40.237Z,100725.75
2022-08-11T10:32:02.107Z,100731.25
2022-08-11T10:37:06.436Z,100728.19
2022-08-11T10:42:55.336Z,100718.84
2022-08-11T10:47:57.380Z,100714.34
2022-08-11T10:53:17.797Z,100703.91
2022-08-11T10:58:37.608Z,100694.06
2022-08-11T11:03:39.025Z,100694.81
2022-08-11T11:08:53.452Z,100690.16
2022-08-11T11:14:15.225Z,100693.69
2022-08-11T11:19:20.693Z,100679.97
2022-08-11T11:24:37.340Z,100673.31
2022-08-11T11:30:09.155Z,100666.72
2022-08-11T11:35:29.460Z,100661.47
2022-08-11T11:40:31.908Z,100654.03
2022-08-11T11:45:33.593Z,100640.00
2022-08-11T11:50:36.808Z,100627.41
2022-08-11T11:55:38.211Z,100637.25
2022-08-11T12:00:58.648Z,100641.88
2022-08-11T12:06:00.058Z,100644.69
2022-08-11T12:11:24.324Z,100640.25
2022-08-11T12:16:33.991Z,100634.00
2022-08-11T12:21:37.726Z,100631.44
2022-08-11T12:27:16.344Z,100632.63
2022-08-11T12:32:20.042Z,100623.53
2022-08-11T12:37:23.543Z,100617.72
2022-08-11T12:42:43.422Z,100617.16
2022-08-11T12:48:57.263Z,100616.41
2022-08-11T12:53:29.659Z,100606.69
2022-08-11T12:58:31.057Z,100597.34
2022-08-11T13:03:52.553Z,100591.84
2022-08-11T13:09:00.965Z,100588.25
2022-08-11T13:14:02.835Z,100581.91
2022-08-11T13:19:04.242Z,100575.84
2022-08-11T13:24:05.832Z,100564.31
2022-08-11T13:29:07.233Z,100562.13
2022-08-11T13:34:08.740Z,100569.03
2022-08-11T13:39:10.202Z,100560.53
2022-08-11T13:44:15.866Z,100562.66
2022-08-11T13:49:19.814Z,100550.56
2022-08-11T13:54:22.785Z,100542.03
2022-08-11T13:59:30.308Z,100537.66
2022-08-11T14:04:41.946Z,100541.50
2022-08-11T14:09:43.657Z,100538.69
2022-08-11T14:14:52.340Z,100536.25
2022-08-11T14:19:53.938Z,100534.38
2022-08-11T14:24:55.346Z,100518.69
2022-08-11T14:29:57.305Z,100519.00
2022-08-11T14:34:59.433Z,100511.25
2022-08-11T14:40:03.280Z,100511.81
2022-08-11T14:45:58.290Z,100513.19
2022-08-11T14:50:55.952Z,100504.38
2022-08-11T14:56:15.960Z,100507.91
2022-08-11T15:01:35.773Z,100498.56
2022-08-11T15:06:37.234Z,100505.69
2022-08-11T15:11:57.271Z,100497.75
2022-08-11T15:17:10.506Z,100501.34
2022-08-11T15:22:31.313Z,100484.56
2022-08-11T15:27:51.073Z,100483.19
2022-08-11T15:33:12.909Z,100481.00
2022-08-11T15:38:14.308Z,100484.84
2022-08-11T15:43:42.156Z,100478.78
2022-08-11T15:48:48.227Z,100486.22
2022-08-11T15:53:57.163Z,100488.13
2022-08-11T15:59:42.149Z,100480.16
2022-08-11T16:04:40.595Z,100473.56
2022-08-11T16:09:52.653Z,100478.06
2022-08-11T16:15:20.004Z,100480.59
2022-08-11T16:20:23.593Z,100477.03
2022-08-11T16:27:05.715Z,100472.75
2022-08-11T16:30:46.756Z,100456.78
2022-08-11T16:36:06.659Z,100457.19
2022-08-11T16:41:11.727Z,100457.72
2022-08-11T16:46:37.433Z,100454.41
2022-08-11T16:51:38.838Z,100464.31
2022-08-11T16:56:50.178Z,100452.44
2022-08-11T17:01:55.749Z,100460.44
2022-08-11T17:07:24.010Z,100465.66
2022-08-11T17:12:55.457Z,100460.97
2022-08-11T17:17:57.868Z,100456.53
2022-08-11T17:23:18.302Z,100462.06
2022-08-11T17:28:19.778Z,100459.84
2022-08-11T17:33:41.454Z,100454.88
2022-08-11T17:38:42.860Z,100467.25
2022-08-11T17:44:03.418Z,100454.31
2022-08-11T17:49:07.553Z,100460.91
2022-08-11T17:54:27.756Z,100466.41
2022-08-11T18:00:07.523Z,100470.81
2022-08-11T18:05:13.013Z,100470.22
2022-08-11T18:10:36.760Z,100479.84
2022-08-11T18:16:01.483Z,100476.00
2022-08-11T18:21:21.689Z,100482.59
2022-08-11T18:26:41.621Z,100493.34
2022-08-11T18:32:05.737Z,100488.72
2022-08-11T18:37:29.454Z,100492.81
2022-08-11T18:42:50.185Z,100500.47
2022-08-11T18:48:11.654Z,100499.41
2022-08-11T18:53:32.893Z,100508.22
2022-08-11T18:58:52.767Z,100501.88
2022-08-11T19:04:17.265Z,100509.06
2022-08-11T19:09:39.125Z,100500.50
2022-08-11T19:14:58.892Z,100498.56
2022-08-11T19:20:18.805Z,100498.78
2022-08-11T19:25:38.832Z,100509.63
2022-08-11T19:30:58.694Z,100496.09
2022-08-11T19:36:18.932Z,100502.38
2022-08-11T19:41:52.224Z,100515.94
2022-08-11T19:47:17.306Z,100505.75
2022-08-11T19:52:37.368Z,100507.13
2022-08-11T19:57:57.456Z,100512.00
2022-08-11T20:03:18.401Z,100523.38
2022-08-11T20:08:38.238Z,100524.69
2022-08-11T20:13:58.203Z,100530.47
2022-08-11T20:19:19.809Z,100527.16
2022-08-11T20:24:46.294Z,100532.66
2022-08-11T20:30:06.605Z,100520.56
2022-08-11T20:35:27.149Z,100517.25
2022-08-11T20:40:47.023Z,100513.41
2022-08-11T20:46:06.809Z,100528.84
2022-08-11T20:51:28.172Z,100528.00
2022-08-11T20:56:57.842Z,100531.03
2022-08-11T21:02:17.831Z,100537.34
2022-08-11T21:07:41.229Z,100540.69
2022-08-11T21:13:24.129Z,100536.22
2022-08-11T21:18:41.496Z,100539.00
2022-08-11T21:24:01.528Z,100537.88
2022-08-11T21:29:22.001Z,100547.56
2022-08-11T21:34:42.945Z,100547.78
2022-08-11T21:40:03.578Z,100563.25
2022-08-11T21:45:24.221Z,100559.38
2022-08-11T21:50:45.281Z,100561.00
2022-08-11T21:56:05.108Z,100561.00
2022-08-11T22:01:26.047Z,100558.81
2022-08-11T22:06:46.042Z,100567.59
2022-08-11T22:12:29.717Z,100564.53
2022-08-11T22:17:46.187Z,100551.03
2022-08-11T22:23:06.284Z,100554.03
2022-08-11T22:28:28.579Z,100558.47
2022-08-11T22:34:02.986Z,100554.81
2022-08-11T22:39:23.427Z,100564.75
2022-08-11T22:44:43.377Z,100560.38
2022-08-11T22:50:04.169Z,100562.00
2022-08-11T22:55:24.633Z,100565.69
2022-08-11T23:00:44.634Z,100564.63
2022-08-11T23:06:04.987Z,100561.47
2022-08-11T23:11:25.085Z,100564.06
2022-08-11T23:16:44.967Z,100565.59
2022-08-11T23:22:05.817Z,100570.03
2022-08-11T23:27:27.295Z,100562.81
2022-08-11T23:32:47.944Z,100564.53
2022-08-11T23:38:07.953Z,100568.19
2022-08-11T23:43:28.018Z,100565.75
2022-08-11T23:48:48.549Z,100557.97
2022-08-11T23:54:08.610Z,100553.03
2022-08-11T23:59:28.772Z,100558.84
